Time;durP1;ratioP1;P1;durP2;ratioP2;P2;SDS_P1;SDS_P2;PMS_P1;PMS_P2;Temp;Humidity;BMP_temperature;BMP_pressure;BME280_temperature;BME280_humidity;BME280_pressure;Samples;Min_cycle;Max_cycle;Signal;HPM_P1;HPM_P2
2023/08/07 00:00:35;;;;;;;7.72;5.40;;;14.80;99.90;;;;;;5067613;28;20462;-87
2023/08/07 00:03:01;;;;;;;12.80;5.28;;;14.70;99.90;;;;;;5068596;28;20189;-88
2023/08/07 00:05:26;;;;;;;11.40;5.53;;;14.70;99.90;;;;;;5066717;28;20032;-85
2023/08/07 00:07:52;;;;;;;7.57;5.22;;;14.70;99.90;;;;;;5069436;28;20166;-86
2023/08/07 00:10:18;;;;;;;9.57;4.93;;;14.70;99.90;;;;;;5066921;28;20103;-88
2023/08/07 00:12:43;;;;;;;11.35;7.00;;;14.70;99.90;;;;;;5067891;28;20024;-85
2023/08/07 00:15:11;;;;;;;6.30;5.35;;;14.60;99.90;;;;;;5057525;28;20073;-85
2023/08/07 00:17:37;;;;;;;10.60;5.80;;;14.60;99.90;;;;;;5067848;28;20048;-85
2023/08/07 00:20:04;;;;;;;10.75;5.93;;;14.60;99.90;;;;;;5067438;28;20033;-88
2023/08/07 00:22:29;;;;;;;9.32;6.13;;;14.60;99.90;;;;;;5069155;28;20044;-85
2023/08/07 00:24:55;;;;;;;10.63;6.20;;;14.60;99.90;;;;;;5058748;28;20036;-86
2023/08/07 00:27:21;;;;;;;14.25;6.30;;;14.60;99.90;;;;;;5063688;28;20037;-86
2023/08/07 00:29:46;;;;;;;20.50;7.75;;;14.60;99.90;;;;;;5067832;28;20059;-85
2023/08/07 00:32:12;;;;;;;10.07;6.38;;;14.60;99.90;;;;;;5068413;28;20493;-85
2023/08/07 00:34:37;;;;;;;13.65;6.70;;;14.50;99.90;;;;;;5062943;28;20028;-85
2023/08/07 00:37:03;;;;;;;13.48;7.07;;;14.50;99.90;;;;;;5069317;28;20024;-86
2023/08/07 00:39:30;;;;;;;11.13;6.57;;;14.50;99.90;;;;;;5064598;28;20036;-89
2023/08/07 00:41:56;;;;;;;12.60;6.43;;;14.50;99.90;;;;;;5060514;28;20127;-86
2023/08/07 00:44:23;;;;;;;15.52;6.93;;;14.60;99.90;;;;;;5068577;28;20537;-85
2023/08/07 00:46:49;;;;;;;14.27;7.05;;;14.50;99.90;;;;;;5066342;28;20347;-82
2023/08/07 00:49:15;;;;;;;9.15;6.38;;;14.50;99.90;;;;;;5067909;28;20036;-85
2023/08/07 00:51:41;;;;;;;10.02;6.50;;;14.50;99.90;;;;;;5044676;28;20039;-85
2023/08/07 00:54:11;;;;;;;9.90;6.70;;;14.40;99.90;;;;;;5064296;28;20024;-85
2023/08/07 00:56:37;;;;;;;12.93;6.10;;;14.50;99.90;;;;;;5067548;28;20024;-85
2023/08/07 00:59:03;;;;;;;8.70;6.32;;;14.40;99.90;;;;;;5064621;28;20030;-86
2023/08/07 01:01:29;;;;;;;12.05;6.35;;;14.40;99.90;;;;;;5065420;28;20123;-85
2023/08/07 01:03:57;;;;;;;14.38;7.07;;;14.30;99.90;;;;;;5067802;28;20393;-93
2023/08/07 01:06:23;;;;;;;15.18;7.88;;;14.40;99.90;;;;;;5050232;28;20024;-85
2023/08/07 01:08:49;;;;;;;12.10;6.68;;;14.40;99.90;;;;;;5063990;28;20078;-84
2023/08/07 01:11:20;;;;;;;15.82;6.88;;;14.30;99.90;;;;;;5050277;28;20024;-85
2023/08/07 01:14:05;;;;;;;17.92;6.38;;;14.30;99.90;;;;;;5062873;28;20078;-86
2023/08/07 01:16:42;;;;;;;14.35;8.05;;;14.30;99.90;;;;;;5065700;28;20115;-88
2023/08/07 01:19:24;;;;;;;6.82;5.63;;;14.40;99.90;;;;;;5065808;28;20530;-84
2023/08/07 01:21:50;;;;;;;17.48;7.28;;;14.30;99.90;;;;;;5062193;28;20040;-86
2023/08/07 01:24:15;;;;;;;15.77;7.68;;;14.30;99.90;;;;;;5066037;28;20378;-88
2023/08/07 01:26:44;;;;;;;16.40;7.45;;;14.30;99.90;;;;;;5066035;28;20071;-85
2023/08/07 01:29:22;;;;;;;14.55;6.25;;;14.40;99.90;;;;;;5059854;28;20021;-84
2023/08/07 01:31:51;;;;;;;11.88;5.72;;;14.40;99.90;;;;;;5064960;28;20029;-87
2023/08/07 01:34:21;;;;;;;15.32;6.90;;;14.40;99.90;;;;;;5066471;28;20051;-85
2023/08/07 01:36:48;;;;;;;13.30;6.63;;;14.40;99.90;;;;;;5063926;28;20032;-88
2023/08/07 01:39:14;;;;;;;11.32;6.60;;;14.40;99.90;;;;;;5049400;28;20175;-84
2023/08/07 01:41:41;;;;;;;11.65;6.40;;;14.40;99.90;;;;;;5067088;28;20131;-92
2023/08/07 01:44:07;;;;;;;6.47;5.28;;;14.40;99.90;;;;;;5067942;28;20420;-84
2023/08/07 01:46:32;;;;;;;17.17;6.10;;;14.40;99.90;;;;;;5065588;28;20032;-84
2023/08/07 01:48:58;;;;;;;20.10;6.47;;;14.40;99.90;;;;;;5067041;28;20120;-84
2023/08/07 01:51:24;;;;;;;12.75;6.60;;;14.40;99.90;;;;;;5049410;28;20021;-84
2023/08/07 01:53:49;;;;;;;15.70;6.88;;;14.40;99.90;;;;;;5064849;28;20028;-85
2023/08/07 01:56:15;;;;;;;8.07;6.13;;;14.40;99.90;;;;;;5061709;28;20501;-89
2023/08/07 01:58:40;;;;;;;11.45;5.68;;;14.40;99.90;;;;;;5065172;28;20029;-84
2023/08/07 02:01:06;;;;;;;14.38;5.78;;;14.40;99.90;;;;;;5072967;28;20035;-84
2023/08/07 02:03:32;;;;;;;11.88;6.20;;;14.40;99.90;;;;;;5063541;28;20107;-86
2023/08/07 02:05:57;;;;;;;16.60;6.50;;;14.40;99.90;;;;;;5064706;28;20480;-85
2023/08/07 02:08:23;;;;;;;12.93;6.55;;;14.30;99.90;;;;;;5067185;28;20058;-84
2023/08/07 02:10:49;;;;;;;7.18;5.20;;;14.30;99.90;;;;;;5063162;28;20020;-83
2023/08/07 02:13:14;;;;;;;11.63;5.95;;;14.30;99.90;;;;;;5066853;28;20500;-84
2023/08/07 02:15:40;;;;;;;14.75;7.55;;;14.30;99.90;;;;;;5064141;28;20024;-84
2023/08/07 02:18:06;;;;;;;11.88;6.30;;;14.30;99.90;;;;;;5054663;28;20036;-83
2023/08/07 02:20:31;;;;;;;15.55;7.07;;;14.30;99.90;;;;;;5053892;28;21233;-85
2023/08/07 02:22:57;;;;;;;10.23;6.00;;;14.30;99.90;;;;;;5065396;28;20064;-85
2023/08/07 02:25:23;;;;;;;18.77;6.60;;;14.30;99.90;;;;;;5060144;28;20035;-84
2023/08/07 02:27:48;;;;;;;10.25;6.07;;;14.30;99.90;;;;;;5063228;28;20423;-85
2023/08/07 02:30:14;;;;;;;9.38;5.72;;;14.30;99.90;;;;;;5067125;28;20098;-83
2023/08/07 02:32:42;;;;;;;13.90;5.75;;;14.30;99.90;;;;;;5065074;28;20029;-88
2023/08/07 02:35:08;;;;;;;13.63;6.07;;;14.30;99.90;;;;;;5062721;28;20039;-84
2023/08/07 02:37:33;;;;;;;6.65;5.22;;;14.30;99.90;;;;;;5067331;28;20032;-83
2023/08/07 02:39:59;;;;;;;12.43;7.00;;;14.30;99.90;;;;;;5058959;28;20560;-83
2023/08/07 02:42:25;;;;;;;8.50;5.40;;;14.30;99.90;;;;;;5063246;28;20535;-89
2023/08/07 02:44:50;;;;;;;11.68;5.45;;;14.30;99.90;;;;;;5068547;28;20086;-85
2023/08/07 02:47:16;;;;;;;13.85;5.32;;;14.40;99.90;;;;;;5066967;28;20032;-88
2023/08/07 02:49:41;;;;;;;7.07;4.72;;;14.30;99.90;;;;;;5065764;28;20024;-85
2023/08/07 02:52:07;;;;;;;6.45;4.28;;;14.30;99.90;;;;;;5058712;28;20077;-82
2023/08/07 02:54:33;;;;;;;5.68;4.53;;;14.30;99.90;;;;;;5066864;28;20032;-84
2023/08/07 02:56:58;;;;;;;13.68;5.07;;;14.30;99.90;;;;;;5056192;28;20024;-83
2023/08/07 02:59:24;;;;;;;8.77;4.63;;;14.30;99.90;;;;;;5064843;28;20020;-84
2023/08/07 03:01:50;;;;;;;13.57;5.47;;;14.30;99.90;;;;;;5064855;28;20032;-85
2023/08/07 03:04:16;;;;;;;12.50;4.38;;;14.30;99.90;;;;;;5064275;28;20082;-88
2023/08/07 03:06:41;;;;;;;6.65;3.72;;;14.30;99.90;;;;;;5063128;28;20033;-84
2023/08/07 03:09:07;;;;;;;5.00;4.00;;;14.30;99.90;;;;;;5068301;28;20033;-84
2023/08/07 03:11:32;;;;;;;9.25;4.40;;;14.20;99.90;;;;;;5070712;28;20099;-85
2023/08/07 03:13:58;;;;;;;10.95;4.43;;;14.20;99.90;;;;;;5068328;28;20103;-84
2023/08/07 03:16:24;;;;;;;14.85;5.68;;;14.30;99.90;;;;;;5070036;28;20054;-83
2023/08/07 03:18:49;;;;;;;7.45;3.70;;;14.30;99.90;;;;;;5070623;28;20086;-83
2023/08/07 03:21:15;;;;;;;8.10;3.70;;;14.30;99.90;;;;;;5052204;28;20045;-85
2023/08/07 03:23:40;;;;;;;11.05;4.00;;;14.30;99.90;;;;;;5069186;28;20039;-82
2023/08/07 03:26:09;;;;;;;6.00;3.42;;;14.30;99.90;;;;;;5075567;28;20228;-84
2023/08/07 03:28:36;;;;;;;6.13;3.25;;;14.30;99.90;;;;;;5060719;28;20032;-84
2023/08/07 03:31:02;;;;;;;5.47;3.22;;;14.30;99.90;;;;;;5062850;28;20028;-86
2023/08/07 03:33:27;;;;;;;13.43;3.35;;;14.30;99.90;;;;;;5063690;28;20082;-85
2023/08/07 03:35:53;;;;;;;4.28;2.83;;;14.30;99.90;;;;;;5069359;28;20031;-84
2023/08/07 03:38:19;;;;;;;4.18;2.80;;;14.30;99.90;;;;;;5069822;28;20028;-85
2023/08/07 03:40:46;;;;;;;7.30;2.72;;;14.30;99.90;;;;;;5066598;28;20075;-83
2023/08/07 03:43:11;;;;;;;3.88;2.92;;;14.30;99.90;;;;;;5068855;28;20493;-83
2023/08/07 03:45:37;;;;;;;2.50;2.30;;;14.30;99.90;;;;;;5050540;28;20087;-84
2023/08/07 03:48:03;;;;;;;8.27;3.30;;;14.30;99.90;;;;;;5063901;28;20024;-86
2023/08/07 03:50:30;;;;;;;6.60;2.90;;;14.30;99.90;;;;;;5069713;28;20409;-84
2023/08/07 03:52:56;;;;;;;4.72;2.75;;;14.30;99.90;;;;;;5068319;28;20097;-84
2023/08/07 03:55:21;;;;;;;8.05;3.13;;;14.30;99.90;;;;;;5068583;28;20367;-85
2023/08/07 03:57:47;;;;;;;4.82;2.65;;;14.30;99.90;;;;;;5073153;28;20032;-86
2023/08/07 04:00:13;;;;;;;6.05;2.92;;;14.30;99.90;;;;;;5069092;28;20036;-84
2023/08/07 04:02:39;;;;;;;5.63;2.67;;;14.30;99.90;;;;;;5062704;28;20037;-83
2023/08/07 04:05:04;;;;;;;7.07;2.60;;;14.30;99.90;;;;;;5064748;28;20359;-84
2023/08/07 04:07:30;;;;;;;3.25;2.22;;;14.30;99.90;;;;;;5068640;28;20039;-84
2023/08/07 04:09:55;;;;;;;3.08;2.35;;;14.30;99.90;;;;;;5065710;28;20028;-81
2023/08/07 04:12:21;;;;;;;5.53;2.75;;;14.30;99.90;;;;;;5068774;28;20046;-81
2023/08/07 04:14:46;;;;;;;7.07;2.35;;;14.30;99.90;;;;;;5068329;28;20082;-86
2023/08/07 04:17:12;;;;;;;9.23;2.70;;;14.30;99.90;;;;;;5064358;28;20396;-83
2023/08/07 04:19:38;;;;;;;5.45;2.63;;;14.30;99.90;;;;;;5065359;28;20028;-85
2023/08/07 04:22:03;;;;;;;3.17;2.60;;;14.30;99.90;;;;;;5067315;28;20509;-86
2023/08/07 04:24:32;;;;;;;7.45;3.00;;;14.30;99.90;;;;;;5051332;28;20052;-86
2023/08/07 04:26:58;;;;;;;3.95;2.40;;;14.30;99.90;;;;;;5064574;28;20028;-83
2023/08/07 04:29:24;;;;;;;8.85;3.38;;;14.30;99.90;;;;;;5064793;28;20017;-85
2023/08/07 04:31:52;;;;;;;6.63;2.60;;;14.30;99.90;;;;;;5063745;28;20028;-81
2023/08/07 04:34:18;;;;;;;4.38;2.45;;;14.30;99.90;;;;;;5067277;28;20539;-86
2023/08/07 04:36:44;;;;;;;6.13;2.10;;;14.30;99.90;;;;;;5064881;28;20256;-82
2023/08/07 04:39:13;;;;;;;4.68;2.35;;;14.30;99.90;;;;;;5067062;28;20313;-86
2023/08/07 04:41:43;;;;;;;5.90;2.67;;;14.30;99.90;;;;;;5047907;28;20036;-85
2023/08/07 04:44:09;;;;;;;6.20;2.80;;;14.40;99.90;;;;;;5068121;28;20078;-87
2023/08/07 04:46:34;;;;;;;10.13;2.97;;;14.30;99.90;;;;;;5058224;28;20021;-86
2023/08/07 04:49:00;;;;;;;7.75;2.83;;;14.40;99.90;;;;;;5045192;28;20120;-85
2023/08/07 04:51:55;;;;;;;6.88;2.55;;;14.40;99.90;;;;;;5065420;28;20186;-89
2023/08/07 04:54:21;;;;;;;9.40;2.60;;;14.40;99.90;;;;;;5048454;28;20074;-83
2023/08/07 04:56:46;;;;;;;7.68;2.53;;;14.40;99.90;;;;;;5066341;28;20497;-88
2023/08/07 04:59:12;;;;;;;9.15;2.17;;;14.40;99.90;;;;;;5065201;28;20025;-85
2023/08/07 05:01:38;;;;;;;5.75;2.45;;;14.40;99.90;;;;;;5064725;28;20461;-82
2023/08/07 05:04:05;;;;;;;3.33;2.28;;;14.50;99.90;;;;;;5066683;28;20021;-82
2023/08/07 05:06:30;;;;;;;14.02;4.18;;;14.50;99.90;;;;;;5068857;28;20029;-87
2023/08/07 05:08:56;;;;;;;3.97;1.98;;;14.50;99.90;;;;;;5063574;28;20025;-85
2023/08/07 05:11:22;;;;;;;1.90;1.70;;;14.50;99.90;;;;;;5067195;28;20032;-85
2023/08/07 05:13:47;;;;;;;5.22;2.38;;;14.50;99.90;;;;;;5061076;28;20093;-84
2023/08/07 05:16:13;;;;;;;5.47;1.88;;;14.50;99.90;;;;;;5061382;28;20518;-85
2023/08/07 05:18:38;;;;;;;5.28;2.60;;;14.50;99.90;;;;;;5061265;28;20024;-86
2023/08/07 05:21:04;;;;;;;6.97;2.55;;;14.60;99.90;;;;;;5068857;28;20024;-84
2023/08/07 05:23:33;;;;;;;8.68;2.22;;;14.50;99.90;;;;;;5066147;28;20025;-91
2023/08/07 05:25:58;;;;;;;7.57;2.08;;;14.50;99.90;;;;;;5060017;28;20024;-87
2023/08/07 05:28:24;;;;;;;6.05;2.30;;;14.50;99.90;;;;;;5054321;28;20086;-83
2023/08/07 05:30:49;;;;;;;4.43;1.95;;;14.60;99.90;;;;;;5065040;28;20032;-85
2023/08/07 05:33:15;;;;;;;4.05;1.85;;;14.60;99.90;;;;;;5065647;28;20028;-85
2023/08/07 05:35:41;;;;;;;8.10;2.13;;;14.50;99.90;;;;;;5068074;28;20032;-83
2023/08/07 05:38:06;;;;;;;2.88;2.03;;;14.50;99.90;;;;;;5064032;28;20024;-85
2023/08/07 05:40:32;;;;;;;4.53;2.00;;;14.60;99.90;;;;;;5067242;28;20049;-87
2023/08/07 05:42:57;;;;;;;5.13;2.17;;;14.60;99.90;;;;;;5065450;28;20416;-83
2023/08/07 05:45:23;;;;;;;6.97;1.80;;;14.60;99.90;;;;;;5059270;28;20024;-86
2023/08/07 05:47:49;;;;;;;4.50;2.33;;;14.60;99.90;;;;;;5063660;28;20120;-87
2023/08/07 05:50:14;;;;;;;2.72;2.20;;;14.60;99.90;;;;;;5060065;28;20023;-86
2023/08/07 05:52:40;;;;;;;2.90;2.40;;;14.70;99.90;;;;;;5065771;28;20048;-85
2023/08/07 05:55:06;;;;;;;5.43;2.20;;;14.60;99.90;;;;;;5066090;28;20036;-85
2023/08/07 05:57:31;;;;;;;6.18;1.92;;;14.70;99.90;;;;;;5064674;28;20032;-84
2023/08/07 05:59:57;;;;;;;8.50;2.30;;;14.70;99.90;;;;;;5063909;28;20028;-84
2023/08/07 06:02:23;;;;;;;2.78;1.83;;;14.70;99.90;;;;;;5064420;28;20512;-83
2023/08/07 06:04:48;;;;;;;4.57;2.03;;;14.80;99.90;;;;;;5046674;28;20029;-84
2023/08/07 06:07:14;;;;;;;18.90;4.15;;;14.80;99.90;;;;;;5067066;28;20037;-84
2023/08/07 06:09:40;;;;;;;3.47;2.30;;;14.90;99.90;;;;;;5066027;28;20434;-93
2023/08/07 06:12:06;;;;;;;4.18;1.63;;;14.90;99.90;;;;;;5059032;28;20036;-82
2023/08/07 06:14:31;;;;;;;3.60;2.03;;;15.00;99.90;;;;;;5056259;28;20029;-87
2023/08/07 06:16:57;;;;;;;8.75;2.60;;;15.00;99.90;;;;;;5067294;28;20439;-80
2023/08/07 06:19:23;;;;;;;7.60;2.53;;;15.10;99.90;;;;;;5064381;28;20052;-84
2023/08/07 06:21:50;;;;;;;7.47;2.00;;;15.10;99.90;;;;;;5065123;28;20512;-83
2023/08/07 06:24:16;;;;;;;9.70;1.60;;;15.20;99.90;;;;;;5065671;28;20074;-84
2023/08/07 06:26:41;;;;;;;13.23;2.28;;;15.20;99.90;;;;;;5065167;28;20760;-82
2023/08/07 06:29:07;;;;;;;6.35;1.75;;;15.20;99.90;;;;;;5064847;28;20202;-85
2023/08/07 06:31:32;;;;;;;7.38;2.08;;;15.20;99.90;;;;;;5061713;28;20080;-86
2023/08/07 06:33:59;;;;;;;7.30;2.28;;;15.30;99.90;;;;;;5066051;28;20037;-83
2023/08/07 06:36:25;;;;;;;3.78;2.20;;;15.20;99.90;;;;;;5061211;28;20027;-85
2023/08/07 06:38:51;;;;;;;8.88;2.15;;;15.20;99.90;;;;;;5063978;28;20028;-83
2023/08/07 06:41:16;;;;;;;3.70;1.80;;;15.20;99.90;;;;;;5062839;28;20048;-87
2023/08/07 06:43:42;;;;;;;2.80;1.90;;;15.20;99.90;;;;;;5062440;28;20252;-84
2023/08/07 06:46:07;;;;;;;4.15;1.83;;;15.30;99.90;;;;;;5066275;28;20458;-85
2023/08/07 06:48:33;;;;;;;8.10;1.75;;;15.30;99.90;;;;;;5066672;28;20062;-86
2023/08/07 06:50:59;;;;;;;4.40;2.53;;;15.40;99.90;;;;;;5067027;28;20028;-88
2023/08/07 06:53:24;;;;;;;4.95;1.85;;;15.40;99.90;;;;;;5063091;28;20024;-79
2023/08/07 06:55:51;;;;;;;2.38;1.77;;;15.40;99.90;;;;;;5062950;28;20024;-79
2023/08/07 06:58:16;;;;;;;2.70;2.05;;;15.50;99.90;;;;;;5065282;28;20117;-81
2023/08/07 07:00:42;;;;;;;4.95;1.90;;;15.50;99.90;;;;;;5065860;28;20473;-79
2023/08/07 07:03:09;;;;;;;3.10;1.85;;;15.50;99.90;;;;;;5065894;28;20040;-80
2023/08/07 07:05:35;;;;;;;7.20;1.98;;;15.50;99.90;;;;;;5066819;28;20029;-82
2023/08/07 07:08:01;;;;;;;2.40;1.95;;;15.40;99.90;;;;;;5066534;28;20516;-87
2023/08/07 07:10:26;;;;;;;3.60;1.92;;;15.40;99.90;;;;;;5066811;28;20082;-81
2023/08/07 07:12:52;;;;;;;3.70;1.75;;;15.30;99.90;;;;;;5066514;28;20090;-82
2023/08/07 07:15:18;;;;;;;3.88;1.80;;;15.30;99.90;;;;;;5066924;28;20052;-86
2023/08/07 07:17:43;;;;;;;4.10;2.05;;;15.20;99.90;;;;;;5066294;28;20122;-81
2023/08/07 07:20:09;;;;;;;4.40;2.28;;;15.10;99.90;;;;;;5067513;28;20440;-82
2023/08/07 07:22:35;;;;;;;3.30;2.47;;;15.00;99.90;;;;;;5066570;28;20066;-83
2023/08/07 07:25:01;;;;;;;7.03;1.50;;;15.10;99.90;;;;;;5067516;28;20369;-82
2023/08/07 07:27:27;;;;;;;1.90;1.70;;;14.90;99.90;;;;;;5067063;28;20543;-81
2023/08/07 07:29:52;;;;;;;2.13;1.95;;;14.90;99.90;;;;;;5065785;28;20048;-82
2023/08/07 07:32:18;;;;;;;2.05;1.80;;;14.90;99.90;;;;;;5067233;28;20028;-85
2023/08/07 07:34:44;;;;;;;7.35;2.08;;;14.90;99.90;;;;;;5067021;28;20500;-79
2023/08/07 07:37:10;;;;;;;3.38;1.60;;;14.90;99.90;;;;;;5067336;28;20908;-83
2023/08/07 07:39:36;;;;;;;4.90;2.60;;;14.90;99.90;;;;;;5049047;28;20834;-84
2023/08/07 07:42:03;;;;;;;3.53;1.90;;;14.90;99.90;;;;;;5066606;28;20033;-84
2023/08/07 07:44:29;;;;;;;7.00;2.17;;;15.00;99.90;;;;;;5065476;28;20474;-82
2023/08/07 07:46:54;;;;;;;7.07;2.25;;;15.00;99.90;;;;;;5066457;28;20031;-83
2023/08/07 07:49:20;;;;;;;2.33;1.80;;;15.10;99.90;;;;;;5066871;28;20052;-83
2023/08/07 07:51:46;;;;;;;2.53;2.20;;;15.10;99.90;;;;;;5066480;28;20035;-88
2023/08/07 07:54:12;;;;;;;4.82;2.17;;;15.20;99.90;;;;;;5066558;28;20090;-83
2023/08/07 07:56:37;;;;;;;3.08;2.10;;;15.30;99.90;;;;;;5068249;28;20355;-81
2023/08/07 07:59:03;;;;;;;3.70;2.17;;;15.50;99.90;;;;;;5069815;28;20063;-87
2023/08/07 08:01:29;;;;;;;5.93;2.33;;;15.60;99.90;;;;;;5070043;28;20124;-82
2023/08/07 08:03:54;;;;;;;4.40;2.72;;;15.70;99.90;;;;;;5070150;28;20036;-82
2023/08/07 08:06:20;;;;;;;4.22;1.90;;;15.70;99.90;;;;;;5065799;28;20451;-80
2023/08/07 08:08:46;;;;;;;4.88;2.60;;;15.80;99.90;;;;;;5069826;28;20025;-91
2023/08/07 08:11:11;;;;;;;9.80;2.10;;;15.90;99.90;;;;;;5062431;28;20032;-86
2023/08/07 08:13:39;;;;;;;9.20;2.50;;;15.90;99.90;;;;;;5059305;28;20024;-83
2023/08/07 08:16:05;;;;;;;3.30;1.85;;;16.00;99.90;;;;;;5066087;28;20059;-81
2023/08/07 08:18:31;;;;;;;5.80;2.60;;;16.00;99.90;;;;;;5064891;28;20028;-85
2023/08/07 08:20:57;;;;;;;6.10;2.42;;;16.00;99.90;;;;;;5068763;28;20052;-82
2023/08/07 08:23:22;;;;;;;5.22;2.42;;;16.10;99.90;;;;;;5066334;28;20166;-82
2023/08/07 08:25:48;;;;;;;7.35;2.70;;;16.10;99.90;;;;;;5069124;28;20039;-88
2023/08/07 08:28:14;;;;;;;5.85;2.75;;;16.10;99.90;;;;;;5069051;28;20036;-80
2023/08/07 08:30:41;;;;;;;7.22;2.50;;;16.20;99.90;;;;;;5067295;28;20020;-90
2023/08/07 08:33:09;;;;;;;2.35;1.83;;;16.30;99.90;;;;;;5060171;28;20028;-85
2023/08/07 08:35:35;;;;;;;5.13;1.88;;;16.20;99.90;;;;;;5065817;28;20163;-83
2023/08/07 08:38:01;;;;;;;6.72;2.20;;;16.30;99.90;;;;;;5064479;28;20048;-81
2023/08/07 08:40:26;;;;;;;16.25;2.95;;;16.30;99.90;;;;;;5068509;28;20052;-81
2023/08/07 08:42:57;;;;;;;4.22;2.30;;;16.30;99.90;;;;;;5068398;28;20162;-81
2023/08/07 08:45:25;;;;;;;4.00;2.08;;;16.30;99.90;;;;;;5068660;28;20131;-82
2023/08/07 08:47:54;;;;;;;5.00;2.10;;;16.20;99.90;;;;;;5066732;28;20071;-83
2023/08/07 08:50:20;;;;;;;9.25;2.78;;;16.20;99.90;;;;;;5068876;28;20389;-83
2023/08/07 08:52:46;;;;;;;4.20;2.47;;;16.20;99.90;;;;;;5068830;28;20112;-84
2023/08/07 08:55:13;;;;;;;3.08;2.20;;;16.20;99.90;;;;;;5065313;28;20591;-81
2023/08/07 08:57:40;;;;;;;5.55;2.72;;;16.40;99.90;;;;;;5064073;28;20016;-83
2023/08/07 09:00:20;;;;;;;5.38;2.50;;;16.40;99.90;;;;;;5062819;28;20478;-80
2023/08/07 09:02:47;;;;;;;6.85;2.83;;;16.50;99.90;;;;;;5067164;28;20166;-84
2023/08/07 09:05:17;;;;;;;3.95;1.98;;;16.60;99.90;;;;;;5064962;28;20024;-78
2023/08/07 09:07:46;;;;;;;3.67;2.20;;;16.60;99.90;;;;;;5068158;28;20081;-78
2023/08/07 09:10:12;;;;;;;7.20;2.67;;;16.60;99.90;;;;;;5067933;28;20044;-82
2023/08/07 09:12:41;;;;;;;6.22;2.22;;;16.60;99.90;;;;;;5068986;28;20016;-80
2023/08/07 09:15:08;;;;;;;4.80;2.28;;;16.60;99.90;;;;;;5048233;28;20469;-83
2023/08/07 09:17:40;;;;;;;2.58;1.73;;;16.70;99.90;;;;;;5064179;28;20029;-82
2023/08/07 09:20:11;;;;;;;2.72;2.22;;;16.80;99.90;;;;;;5063102;28;20028;-85
2023/08/07 09:22:36;;;;;;;8.25;2.03;;;16.80;99.90;;;;;;5063270;28;20040;-84
2023/08/07 09:25:03;;;;;;;5.32;2.10;;;16.80;99.90;;;;;;5082582;28;20029;-83
2023/08/07 09:27:29;;;;;;;6.20;1.90;;;16.80;99.90;;;;;;5068173;28;20090;-79
2023/08/07 09:29:55;;;;;;;6.82;1.80;;;16.90;99.90;;;;;;5068083;28;20507;-82
2023/08/07 09:32:23;;;;;;;5.85;2.08;;;16.90;99.90;;;;;;5067973;28;20112;-81
2023/08/07 09:34:50;;;;;;;2.63;1.80;;;16.90;99.90;;;;;;5067971;28;20029;-81
2023/08/07 09:37:16;;;;;;;2.33;1.70;;;16.90;99.90;;;;;;5065464;28;20048;-83
2023/08/07 09:39:42;;;;;;;3.65;1.90;;;17.10;99.90;;;;;;5067775;28;20078;-80
2023/08/07 09:42:17;;;;;;;4.63;1.58;;;17.10;99.90;;;;;;5067734;28;20033;-81
2023/08/07 09:44:44;;;;;;;2.47;1.75;;;17.20;99.90;;;;;;5068117;28;20048;-84
2023/08/07 09:47:14;;;;;;;6.15;1.75;;;17.30;99.90;;;;;;5067730;28;20037;-92
2023/08/07 09:49:41;;;;;;;2.65;1.70;;;17.10;99.90;;;;;;5067296;28;20017;-87
2023/08/07 09:52:08;;;;;;;2.50;1.33;;;17.00;99.90;;;;;;5067937;28;20078;-83
2023/08/07 09:54:34;;;;;;;15.15;3.78;;;16.90;99.90;;;;;;5049783;28;20029;-81
2023/08/07 09:57:02;;;;;;;3.10;1.30;;;16.90;99.90;;;;;;5068006;28;20348;-81
2023/08/07 09:59:28;;;;;;;1.60;1.20;;;16.90;99.90;;;;;;5066832;28;20397;-80
2023/08/07 10:01:55;;;;;;;1.63;1.27;;;16.90;99.90;;;;;;5067537;28;20108;-79
2023/08/07 10:04:22;;;;;;;7.57;1.20;;;17.00;99.90;;;;;;5067659;28;20028;-79
2023/08/07 10:06:49;;;;;;;3.60;1.20;;;17.10;99.90;;;;;;5067685;28;20021;-84
2023/08/07 10:09:16;;;;;;;4.20;1.45;;;17.20;99.90;;;;;;5068066;28;20387;-78
2023/08/07 10:11:42;;;;;;;2.22;1.15;;;17.10;99.90;;;;;;5063149;28;20512;-82
2023/08/07 10:14:09;;;;;;;2.45;1.10;;;17.20;99.90;;;;;;5067602;28;20028;-80
2023/08/07 10:16:39;;;;;;;3.92;1.30;;;17.20;99.90;;;;;;5068014;28;20048;-82
2023/08/07 10:19:05;;;;;;;2.70;1.15;;;17.10;99.90;;;;;;5066411;28;20149;-78
2023/08/07 10:21:35;;;;;;;1.92;1.25;;;17.00;99.90;;;;;;5067000;28;20040;-80
2023/08/07 10:24:03;;;;;;;0.80;0.80;;;16.90;99.90;;;;;;5067416;28;20032;-78
2023/08/07 10:26:32;;;;;;;7.45;1.55;;;16.90;99.90;;;;;;5067913;28;20033;-81
2023/08/07 10:29:04;;;;;;;4.82;1.40;;;16.80;99.90;;;;;;5067024;28;20107;-81
2023/08/07 10:31:31;;;;;;;1.38;1.10;;;16.80;99.90;;;;;;5067253;28;20024;-84
2023/08/07 10:33:57;;;;;;;5.57;1.10;;;16.70;99.90;;;;;;5066997;28;20039;-81
2023/08/07 10:36:23;;;;;;;4.35;0.98;;;16.80;99.90;;;;;;5049138;28;20027;-84
2023/08/07 10:39:09;;;;;;;1.67;1.02;;;16.80;99.90;;;;;;5067258;28;20444;-80
2023/08/07 10:41:57;;;;;;;1.05;0.65;;;16.90;99.90;;;;;;5022976;28;20085;-81
2023/08/07 10:44:29;;;;;;;2.58;0.95;;;16.90;99.90;;;;;;5023625;28;20029;-81
2023/08/07 10:46:56;;;;;;;13.45;1.63;;;17.00;99.90;;;;;;5026550;28;20204;-81
2023/08/07 10:49:38;;;;;;;1.30;0.77;;;17.00;99.90;;;;;;5026435;28;20032;-84
2023/08/07 10:52:14;;;;;;;5.03;1.20;;;17.10;99.90;;;;;;5025583;28;20021;-82
2023/08/07 10:54:47;;;;;;;2.72;1.20;;;17.00;99.90;;;;;;5026795;28;20035;-81
2023/08/07 10:57:14;;;;;;;2.88;1.10;;;17.00;99.90;;;;;;5027100;28;20033;-84
2023/08/07 11:00:04;;;;;;;2.00;0.93;;;17.10;99.90;;;;;;5026705;28;20021;-82
2023/08/07 11:02:30;;;;;;;1.25;0.75;;;17.20;99.90;;;;;;5024138;28;20057;-82
2023/08/07 11:04:56;;;;;;;6.43;0.98;;;17.10;99.90;;;;;;5023530;28;20045;-80
2023/08/07 11:07:27;;;;;;;1.42;0.90;;;17.20;99.90;;;;;;5026941;28;20060;-82
2023/08/07 11:09:53;;;;;;;8.27;1.08;;;17.20;99.90;;;;;;5025101;28;20359;-82
2023/08/07 11:12:20;;;;;;;1.70;1.00;;;17.20;99.90;;;;;;5025640;28;20033;-83
2023/08/07 11:14:46;;;;;;;6.47;1.40;;;17.10;99.90;;;;;;5027092;28;20394;-88
2023/08/07 11:17:12;;;;;;;7.32;1.48;;;16.90;99.90;;;;;;5027138;28;20036;-81
2023/08/07 11:19:38;;;;;;;2.85;1.70;;;16.70;99.90;;;;;;5026030;28;20413;-82
2023/08/07 11:22:04;;;;;;;3.67;1.35;;;16.50;99.90;;;;;;5026476;28;20041;-77
2023/08/07 11:24:30;;;;;;;6.45;1.48;;;16.20;99.90;;;;;;5024378;28;20045;-82
2023/08/07 11:26:56;;;;;;;6.07;1.80;;;16.00;99.90;;;;;;5023853;28;20091;-82
2023/08/07 11:29:24;;;;;;;6.15;1.98;;;15.80;99.90;;;;;;5024681;28;20026;-80
2023/08/07 11:31:50;;;;;;;8.48;2.17;;;15.80;99.90;;;;;;5028065;28;20509;-80
2023/08/07 11:34:20;;;;;;;9.77;2.08;;;15.70;99.90;;;;;;5030542;28;20549;-79
2023/08/07 11:36:46;;;;;;;5.55;2.40;;;15.70;99.90;;;;;;5029278;28;20048;-80
2023/08/07 11:39:13;;;;;;;5.97;1.90;;;15.70;99.90;;;;;;5034168;28;20363;-78
2023/08/07 11:41:38;;;;;;;6.13;1.42;;;15.70;99.90;;;;;;5069753;28;20043;-79
2023/08/07 11:44:07;;;;;;;6.00;1.60;;;15.70;99.90;;;;;;5052145;28;20016;-80
2023/08/07 11:46:33;;;;;;;4.82;1.42;;;15.70;99.90;;;;;;5068904;28;20119;-82
2023/08/07 11:48:59;;;;;;;8.63;1.83;;;15.80;99.90;;;;;;5069350;28;20103;-81
2023/08/07 11:51:26;;;;;;;5.10;1.67;;;15.90;99.90;;;;;;5069812;28;20448;-87
2023/08/07 11:53:56;;;;;;;6.35;1.40;;;16.00;99.90;;;;;;5070137;28;20032;-80
2023/08/07 11:56:22;;;;;;;4.15;1.35;;;16.20;99.90;;;;;;5070205;28;20774;-80
2023/08/07 11:58:49;;;;;;;4.85;1.35;;;16.20;99.90;;;;;;5069957;28;20021;-85
2023/08/07 12:01:22;;;;;;;10.43;1.52;;;16.20;99.90;;;;;;5069857;28;20474;-81
2023/08/07 12:04:08;;;;;;;3.05;1.05;;;16.20;99.90;;;;;;5067454;28;20363;-82
2023/08/07 12:06:43;;;;;;;4.65;1.10;;;16.00;99.90;;;;;;5069288;28;20377;-83
2023/08/07 12:09:12;;;;;;;3.20;1.30;;;15.90;99.90;;;;;;5069703;28;20028;-81
2023/08/07 12:11:38;;;;;;;4.70;1.50;;;15.90;99.90;;;;;;5069865;28;20059;-79
2023/08/07 12:14:05;;;;;;;2.80;2.03;;;15.90;99.90;;;;;;5069759;28;20020;-91
2023/08/07 12:16:37;;;;;;;7.38;1.80;;;15.90;99.90;;;;;;5065243;28;20059;-85
2023/08/07 12:19:04;;;;;;;9.10;1.10;;;15.90;99.90;;;;;;5069911;28;20482;-83
2023/08/07 12:21:32;;;;;;;4.30;1.40;;;16.00;99.90;;;;;;5069855;28;20469;-79
2023/08/07 12:23:59;;;;;;;4.97;1.38;;;16.30;99.90;;;;;;5068731;28;20130;-83
2023/08/07 12:26:25;;;;;;;3.35;0.82;;;16.30;99.90;;;;;;5070563;28;20119;-80
2023/08/07 12:28:50;;;;;;;6.30;1.35;;;16.40;99.90;;;;;;5069273;28;20800;-83
2023/08/07 12:31:17;;;;;;;7.25;1.20;;;16.40;99.90;;;;;;5069952;28;20032;-79
2023/08/07 12:33:43;;;;;;;1.52;0.93;;;16.40;99.90;;;;;;5069592;28;20119;-81
2023/08/07 12:36:08;;;;;;;5.70;2.08;;;16.40;99.90;;;;;;5069633;28;20256;-81
2023/08/07 12:38:34;;;;;;;4.03;1.10;;;16.30;99.90;;;;;;5068786;28;20031;-83
2023/08/07 12:40:59;;;;;;;3.15;0.93;;;16.30;99.90;;;;;;5069761;28;20055;-81
2023/08/07 12:43:26;;;;;;;3.33;1.17;;;16.10;99.90;;;;;;5068981;28;20057;-83